EDDS | Stuttgart

Hinweis: Solltest Du Fotos von diesem Flugplatz haben und Sie uns zur verfügung stellen möchtest. Selbstverständlich mit Namensnennung schicke doch bitte eine Mail an mail@icao-airport.info!


METAR: EDDS 281420Z 36006KT 310V070 9999 FEW048 SCT060 BKN110 26/17 Q1019 NOSIG


Verwaltung oder
Flugleitung:
Flughafen Stuttgart GmbH
Postfach 230461D-80624 Stuttgart
Öffnungszeiten: H 24, CTR H 24
Webseite: www.flughafen-stuttgart.de

Pisten: RWY 07/25 CONC RWY 07 CONC

TORA: 3345m
LDA: 3045m

RWY 25 CONC

TORA: 3045m
LDA: 3345m


Landegebühren:
(mit erhötem Lärmschutz, ohne zusätz. Gebühren)
bis 472,5kg (UL): unbekannt
bis 750kg: unbekannt
bis 1200kg: unbekannt
bis 2000kg: unbekannt

Flugregeln: VFR, NVFR, IFR Koordinaten: N 48° 41,39‘ E 09° 13,32‘
Luftfahrzeuge: PCN 80/R/C/X/T, Hubschrauber, andere Luftfahrzeuge PPR Frequenzen: Stuttgart ATIS 126,125MHZ
Stuttgart Delivery 121,900MHz
Stuttgart Rollkontrolle 118,600MHz
Stuttgart Turm 119,050MHz
Flugplatzhöhe: 1276ft FIS-Bereich: Langen Information 128,950MHz
GAFOR: 53 Kraftstoffe: 100 LL, Turbo A1
Bemerkungen: keine Übernachtungs-möglichkeiten:

Alle Angaben ohne Gewähr!                                                                                                                                        Letzte Änderung: August 2015


Sollten Sie einen Fehler bemerken, schreiben doch bitte einen kurzen Kommentar!